sensor_id;sensor_type;location;lat;lon;timestamp;temperature;humidity
27896;DHT22;15241;48.374;10.876;2023-02-01T00:03:54;4.40;99.90
27896;DHT22;15241;48.374;10.876;2023-02-01T00:08:54;4.30;99.90
27896;DHT22;15241;48.374;10.876;2023-02-01T00:13:53;4.20;99.90
27896;DHT22;15241;48.374;10.876;2023-02-01T00:18:56;4.30;99.90
27896;DHT22;15241;48.374;10.876;2023-02-01T00:23:56;4.20;99.90
27896;DHT22;15241;48.374;10.876;2023-02-01T00:28:55;4.10;99.90
27896;DHT22;15241;48.374;10.876;2023-02-01T00:33:54;4.10;99.90
27896;DHT22;15241;48.374;10.876;2023-02-01T00:38:53;4.10;99.90
27896;DHT22;15241;48.374;10.876;2023-02-01T00:43:52;4.00;99.90
27896;DHT22;15241;48.374;10.876;2023-02-01T00:48:51;4.00;99.90
27896;DHT22;15241;48.374;10.876;2023-02-01T00:53:50;3.90;99.90
27896;DHT22;15241;48.374;10.876;2023-02-01T00:58:49;3.90;99.90
27896;DHT22;15241;48.374;10.876;2023-02-01T01:03:51;3.90;99.90
27896;DHT22;15241;48.374;10.876;2023-02-01T01:08:52;3.90;99.90
27896;DHT22;15241;48.374;10.876;2023-02-01T01:13:52;3.80;99.90
27896;DHT22;15241;48.374;10.876;2023-02-01T01:18:52;3.90;99.90
27896;DHT22;15241;48.374;10.876;2023-02-01T01:23:51;3.80;99.90
27896;DHT22;15241;48.374;10.876;2023-02-01T01:28:50;3.80;99.90
27896;DHT22;15241;48.374;10.876;2023-02-01T01:33:51;3.90;99.90
27896;DHT22;15241;48.374;10.876;2023-02-01T01:38:50;3.80;99.90
27896;DHT22;15241;48.374;10.876;2023-02-01T01:43:52;3.90;99.90
27896;DHT22;15241;48.374;10.876;2023-02-01T01:48:57;3.70;99.90
27896;DHT22;15241;48.374;10.876;2023-02-01T01:54:01;3.70;99.90
27896;DHT22;15241;48.374;10.876;2023-02-01T01:59:01;3.70;99.90
27896;DHT22;15241;48.374;10.876;2023-02-01T02:04:00;3.50;99.90
27896;DHT22;15241;48.374;10.876;2023-02-01T02:09:00;3.50;99.90
27896;DHT22;15241;48.374;10.876;2023-02-01T02:13:59;3.50;99.90
27896;DHT22;15241;48.374;10.876;2023-02-01T02:19:06;3.60;99.90
27896;DHT22;15241;48.374;10.876;2023-02-01T02:30:05;3.60;99.90
27896;DHT22;15241;48.374;10.876;2023-02-01T02:35:05;3.60;99.90
27896;DHT22;15241;48.374;10.876;2023-02-01T02:40:12;3.60;99.90
27896;DHT22;15241;48.374;10.876;2023-02-01T02:45:13;3.50;99.90
27896;DHT22;15241;48.374;10.876;2023-02-01T02:50:17;3.60;99.90
27896;DHT22;15241;48.374;10.876;2023-02-01T02:55:18;3.60;99.90
27896;DHT22;15241;48.374;10.876;2023-02-01T03:00:21;3.50;99.90
27896;DHT22;15241;48.374;10.876;2023-02-01T03:05:19;3.50;99.90
27896;DHT22;15241;48.374;10.876;2023-02-01T03:10:23;3.50;99.90
27896;DHT22;15241;48.374;10.876;2023-02-01T03:25:43;3.60;99.90
27896;DHT22;15241;48.374;10.876;2023-02-01T03:30:43;3.60;99.90
27896;DHT22;15241;48.374;10.876;2023-02-01T03:40:53;3.60;99.90
27896;DHT22;15241;48.374;10.876;2023-02-01T03:45:58;3.60;99.90
27896;DHT22;15241;48.374;10.876;2023-02-01T03:50:58;3.60;99.90
27896;DHT22;15241;48.374;10.876;2023-02-01T03:55:58;3.60;99.90
27896;DHT22;15241;48.374;10.876;2023-02-01T04:00:58;3.70;99.90
27896;DHT22;15241;48.374;10.876;2023-02-01T04:05:58;3.70;99.90
27896;DHT22;15241;48.374;10.876;2023-02-01T04:10:57;3.70;99.90
27896;DHT22;15241;48.374;10.876;2023-02-01T04:15:55;3.80;99.90
27896;DHT22;15241;48.374;10.876;2023-02-01T04:20:54;3.70;99.90
27896;DHT22;15241;48.374;10.876;2023-02-01T04:25:53;3.80;99.90
27896;DHT22;15241;48.374;10.876;2023-02-01T04:30:52;3.90;99.90
27896;DHT22;15241;48.374;10.876;2023-02-01T04:35:51;3.90;99.90
27896;DHT22;15241;48.374;10.876;2023-02-01T04:40:50;3.90;99.90
27896;DHT22;15241;48.374;10.876;2023-02-01T04:45:50;4.00;99.90
27896;DHT22;15241;48.374;10.876;2023-02-01T04:50:50;4.00;99.90
27896;DHT22;15241;48.374;10.876;2023-02-01T04:55:49;4.00;99.90
27896;DHT22;15241;48.374;10.876;2023-02-01T05:00:48;3.90;99.90
27896;DHT22;15241;48.374;10.876;2023-02-01T05:05:48;4.00;99.90
27896;DHT22;15241;48.374;10.876;2023-02-01T05:10:47;3.90;99.90
27896;DHT22;15241;48.374;10.876;2023-02-01T05:15:46;3.90;99.90
27896;DHT22;15241;48.374;10.876;2023-02-01T05:20:45;3.90;99.90
27896;DHT22;15241;48.374;10.876;2023-02-01T05:25:44;4.00;99.90
27896;DHT22;15241;48.374;10.876;2023-02-01T05:30:43;4.00;99.90
27896;DHT22;15241;48.374;10.876;2023-02-01T05:35:42;4.00;99.90
27896;DHT22;15241;48.374;10.876;2023-02-01T05:40:41;4.00;99.90
27896;DHT22;15241;48.374;10.876;2023-02-01T05:45:40;4.00;99.90
27896;DHT22;15241;48.374;10.876;2023-02-01T05:50:38;4.00;99.90
27896;DHT22;15241;48.374;10.876;2023-02-01T05:55:38;4.00;99.90
27896;DHT22;15241;48.374;10.876;2023-02-01T06:00:37;3.90;99.90
27896;DHT22;15241;48.374;10.876;2023-02-01T06:05:36;3.90;99.90
27896;DHT22;15241;48.374;10.876;2023-02-01T06:10:34;4.00;99.90
27896;DHT22;15241;48.374;10.876;2023-02-01T06:15:33;4.00;99.90
27896;DHT22;15241;48.374;10.876;2023-02-01T06:20:33;4.00;99.90
27896;DHT22;15241;48.374;10.876;2023-02-01T06:25:32;4.00;99.90
27896;DHT22;15241;48.374;10.876;2023-02-01T06:30:31;4.00;99.90
27896;DHT22;15241;48.374;10.876;2023-02-01T06:35:30;4.00;99.90
27896;DHT22;15241;48.374;10.876;2023-02-01T06:40:28;4.10;99.90
27896;DHT22;15241;48.374;10.876;2023-02-01T06:45:27;4.10;99.90
27896;DHT22;15241;48.374;10.876;2023-02-01T06:50:26;4.20;99.90
27896;DHT22;15241;48.374;10.876;2023-02-01T06:55:25;4.20;99.90
27896;DHT22;15241;48.374;10.876;2023-02-01T07:00:25;4.20;99.90
27896;DHT22;15241;48.374;10.876;2023-02-01T07:05:24;4.20;99.90
27896;DHT22;15241;48.374;10.876;2023-02-01T07:10:22;4.30;99.90
27896;DHT22;15241;48.374;10.876;2023-02-01T07:15:21;4.20;99.90
27896;DHT22;15241;48.374;10.876;2023-02-01T07:20:20;4.30;99.90
27896;DHT22;15241;48.374;10.876;2023-02-01T07:25:19;4.30;99.90
27896;DHT22;15241;48.374;10.876;2023-02-01T07:30:19;4.30;99.90
27896;DHT22;15241;48.374;10.876;2023-02-01T07:35:18;4.30;99.90
27896;DHT22;15241;48.374;10.876;2023-02-01T07:40:18;4.40;99.90
27896;DHT22;15241;48.374;10.876;2023-02-01T07:45:17;4.50;99.90
27896;DHT22;15241;48.374;10.876;2023-02-01T07:50:17;4.50;99.90
27896;DHT22;15241;48.374;10.876;2023-02-01T07:55:16;4.60;99.90
27896;DHT22;15241;48.374;10.876;2023-02-01T08:00:18;4.70;99.90
27896;DHT22;15241;48.374;10.876;2023-02-01T08:05:17;4.70;99.90
27896;DHT22;15241;48.374;10.876;2023-02-01T08:10:18;4.80;99.90
27896;DHT22;15241;48.374;10.876;2023-02-01T08:20:25;4.90;99.90
27896;DHT22;15241;48.374;10.876;2023-02-01T08:25:24;4.90;99.90
27896;DHT22;15241;48.374;10.876;2023-02-01T08:30:23;4.90;99.90
27896;DHT22;15241;48.374;10.876;2023-02-01T08:35:22;4.90;99.90
27896;DHT22;15241;48.374;10.876;2023-02-01T08:40:21;5.10;99.90
27896;DHT22;15241;48.374;10.876;2023-02-01T08:45:22;5.10;99.90
27896;DHT22;15241;48.374;10.876;2023-02-01T08:50:22;5.20;99.90
27896;DHT22;15241;48.374;10.876;2023-02-01T08:55:21;5.20;99.90
27896;DHT22;15241;48.374;10.876;2023-02-01T09:00:21;5.30;99.90
27896;DHT22;15241;48.374;10.876;2023-02-01T09:05:20;5.40;99.90
27896;DHT22;15241;48.374;10.876;2023-02-01T09:10:19;5.40;99.90
27896;DHT22;15241;48.374;10.876;2023-02-01T09:15:18;5.50;99.90
27896;DHT22;15241;48.374;10.876;2023-02-01T09:20:18;5.80;99.90
27896;DHT22;15241;48.374;10.876;2023-02-01T09:25:17;5.70;99.90
27896;DHT22;15241;48.374;10.876;2023-02-01T09:30:17;5.90;99.90
27896;DHT22;15241;48.374;10.876;2023-02-01T09:35:16;6.00;99.90
27896;DHT22;15241;48.374;10.876;2023-02-01T09:40:16;6.10;99.90
27896;DHT22;15241;48.374;10.876;2023-02-01T09:45:20;6.10;99.90
27896;DHT22;15241;48.374;10.876;2023-02-01T09:50:27;6.10;99.90
27896;DHT22;15241;48.374;10.876;2023-02-01T09:55:26;5.90;99.90
27896;DHT22;15241;48.374;10.876;2023-02-01T10:00:28;6.00;99.90
27896;DHT22;15241;48.374;10.876;2023-02-01T10:05:41;6.00;99.90
27896;DHT22;15241;48.374;10.876;2023-02-01T10:10:43;6.10;99.90
27896;DHT22;15241;48.374;10.876;2023-02-01T10:15:49;6.00;99.90
27896;DHT22;15241;48.374;10.876;2023-02-01T10:20:55;6.00;99.90
27896;DHT22;15241;48.374;10.876;2023-02-01T10:31:00;6.00;99.90
27896;DHT22;15241;48.374;10.876;2023-02-01T10:36:04;5.90;99.90
27896;DHT22;15241;48.374;10.876;2023-02-01T10:41:03;6.00;99.90
27896;DHT22;15241;48.374;10.876;2023-02-01T10:46:04;6.00;99.90
27896;DHT22;15241;48.374;10.876;2023-02-01T10:51:06;5.90;99.90
27896;DHT22;15241;48.374;10.876;2023-02-01T10:56:08;5.90;99.90
27896;DHT22;15241;48.374;10.876;2023-02-01T11:01:09;5.90;99.90
27896;DHT22;15241;48.374;10.876;2023-02-01T11:06:24;5.90;99.90
27896;DHT22;15241;48.374;10.876;2023-02-01T11:11:19;6.10;99.90
27896;DHT22;15241;48.374;10.876;2023-02-01T11:16:19;6.10;99.90
27896;DHT22;15241;48.374;10.876;2023-02-01T11:21:18;6.30;99.90
27896;DHT22;15241;48.374;10.876;2023-02-01T11:26:20;6.20;99.90
27896;DHT22;15241;48.374;10.876;2023-02-01T11:31:20;6.20;99.90
27896;DHT22;15241;48.374;10.876;2023-02-01T11:36:23;6.00;99.90
27896;DHT22;15241;48.374;10.876;2023-02-01T11:41:24;6.00;99.90
27896;DHT22;15241;48.374;10.876;2023-02-01T11:46:28;6.00;99.90
27896;DHT22;15241;48.374;10.876;2023-02-01T11:51:39;5.90;99.90
27896;DHT22;15241;48.374;10.876;2023-02-01T11:56:40;5.90;99.90
27896;DHT22;15241;48.374;10.876;2023-02-01T12:01:48;5.80;99.90
27896;DHT22;15241;48.374;10.876;2023-02-01T12:06:53;5.60;99.90
27896;DHT22;15241;48.374;10.876;2023-02-01T12:17:24;5.60;99.90
27896;DHT22;15241;48.374;10.876;2023-02-01T12:22:29;5.70;99.90
27896;DHT22;15241;48.374;10.876;2023-02-01T12:28:02;5.60;99.90
27896;DHT22;15241;48.374;10.876;2023-02-01T12:33:06;5.70;99.90
27896;DHT22;15241;48.374;10.876;2023-02-01T12:38:16;5.70;99.90
27896;DHT22;15241;48.374;10.876;2023-02-01T12:43:18;5.90;99.90
27896;DHT22;15241;48.374;10.876;2023-02-01T12:48:29;5.90;99.90
27896;DHT22;15241;48.374;10.876;2023-02-01T12:53:32;5.80;99.90
27896;DHT22;15241;48.374;10.876;2023-02-01T12:58:36;6.00;99.90
27896;DHT22;15241;48.374;10.876;2023-02-01T13:03:38;6.00;99.90
27896;DHT22;15241;48.374;10.876;2023-02-01T13:08:41;6.00;99.90
27896;DHT22;15241;48.374;10.876;2023-02-01T13:13:42;6.00;99.90
27896;DHT22;15241;48.374;10.876;2023-02-01T13:18:45;6.00;99.90
27896;DHT22;15241;48.374;10.876;2023-02-01T13:23:46;6.90;99.90
27896;DHT22;15241;48.374;10.876;2023-02-01T13:28:47;6.90;99.90
27896;DHT22;15241;48.374;10.876;2023-02-01T13:33:58;7.00;99.90
27896;DHT22;15241;48.374;10.876;2023-02-01T13:39:28;7.40;99.90
27896;DHT22;15241;48.374;10.876;2023-02-01T13:44:31;7.40;99.90
27896;DHT22;15241;48.374;10.876;2023-02-01T13:49:36;7.30;99.90
27896;DHT22;15241;48.374;10.876;2023-02-01T13:54:36;7.00;99.90
27896;DHT22;15241;48.374;10.876;2023-02-01T13:59:50;6.60;99.90
27896;DHT22;15241;48.374;10.876;2023-02-01T14:04:50;6.10;99.90
27896;DHT22;15241;48.374;10.876;2023-02-01T14:09:49;6.10;99.90
27896;DHT22;15241;48.374;10.876;2023-02-01T14:14:51;5.70;99.90
27896;DHT22;15241;48.374;10.876;2023-02-01T14:19:51;5.60;99.90
27896;DHT22;15241;48.374;10.876;2023-02-01T14:24:53;5.50;99.90
27896;DHT22;15241;48.374;10.876;2023-02-01T14:29:55;5.40;99.90
27896;DHT22;15241;48.374;10.876;2023-02-01T14:34:56;5.40;99.90
27896;DHT22;15241;48.374;10.876;2023-02-01T14:39:59;5.50;99.90
27896;DHT22;15241;48.374;10.876;2023-02-01T14:50:39;5.40;99.90
27896;DHT22;15241;48.374;10.876;2023-02-01T14:55:41;5.30;99.90
27896;DHT22;15241;48.374;10.876;2023-02-01T15:00:46;5.40;99.90
27896;DHT22;15241;48.374;10.876;2023-02-01T15:05:45;5.40;99.90
27896;DHT22;15241;48.374;10.876;2023-02-01T15:10:47;5.50;99.90
27896;DHT22;15241;48.374;10.876;2023-02-01T15:16:01;5.60;99.90
27896;DHT22;15241;48.374;10.876;2023-02-01T15:21:02;5.60;99.90
27896;DHT22;15241;48.374;10.876;2023-02-01T15:26:01;5.70;99.90
27896;DHT22;15241;48.374;10.876;2023-02-01T15:31:02;5.70;99.90
27896;DHT22;15241;48.374;10.876;2023-02-01T15:36:09;5.60;99.90
27896;DHT22;15241;48.374;10.876;2023-02-01T15:41:12;5.70;99.90
27896;DHT22;15241;48.374;10.876;2023-02-01T15:46:14;5.70;99.90
27896;DHT22;15241;48.374;10.876;2023-02-01T15:51:16;5.60;99.90
27896;DHT22;15241;48.374;10.876;2023-02-01T15:56:16;5.60;99.90
27896;DHT22;15241;48.374;10.876;2023-02-01T16:01:16;5.60;99.90
27896;DHT22;15241;48.374;10.876;2023-02-01T16:06:29;5.60;99.90
27896;DHT22;15241;48.374;10.876;2023-02-01T16:11:30;5.60;99.90
27896;DHT22;15241;48.374;10.876;2023-02-01T16:16:30;5.60;99.90
27896;DHT22;15241;48.374;10.876;2023-02-01T16:21:29;5.50;99.90
27896;DHT22;15241;48.374;10.876;2023-02-01T16:26:28;5.50;99.90
27896;DHT22;15241;48.374;10.876;2023-02-01T16:31:29;5.40;99.90
27896;DHT22;15241;48.374;10.876;2023-02-01T16:36:29;5.30;99.90
27896;DHT22;15241;48.374;10.876;2023-02-01T16:41:27;5.30;99.90
27896;DHT22;15241;48.374;10.876;2023-02-01T16:51:35;5.30;99.90
27896;DHT22;15241;48.374;10.876;2023-02-01T16:56:35;5.30;99.90
27896;DHT22;15241;48.374;10.876;2023-02-01T17:01:36;5.30;99.90
27896;DHT22;15241;48.374;10.876;2023-02-01T17:06:36;5.30;99.90
27896;DHT22;15241;48.374;10.876;2023-02-01T17:11:36;5.20;99.90
27896;DHT22;15241;48.374;10.876;2023-02-01T17:16:34;5.30;99.90
27896;DHT22;15241;48.374;10.876;2023-02-01T17:21:38;5.30;99.90
27896;DHT22;15241;48.374;10.876;2023-02-01T17:26:35;5.20;99.90
27896;DHT22;15241;48.374;10.876;2023-02-01T17:31:37;5.20;99.90
27896;DHT22;15241;48.374;10.876;2023-02-01T17:36:36;5.20;99.90
27896;DHT22;15241;48.374;10.876;2023-02-01T17:41:36;5.20;99.90
27896;DHT22;15241;48.374;10.876;2023-02-01T17:46:35;5.20;99.90
27896;DHT22;15241;48.374;10.876;2023-02-01T17:51:34;5.20;99.90
27896;DHT22;15241;48.374;10.876;2023-02-01T17:56:33;5.20;99.90
27896;DHT22;15241;48.374;10.876;2023-02-01T18:01:32;5.10;99.90
27896;DHT22;15241;48.374;10.876;2023-02-01T18:06:33;5.20;99.90
27896;DHT22;15241;48.374;10.876;2023-02-01T18:11:32;5.10;99.90
27896;DHT22;15241;48.374;10.876;2023-02-01T18:16:32;5.20;99.90
27896;DHT22;15241;48.374;10.876;2023-02-01T18:21:33;5.10;99.90
27896;DHT22;15241;48.374;10.876;2023-02-01T18:26:32;5.20;99.90
27896;DHT22;15241;48.374;10.876;2023-02-01T18:31:32;5.10;99.90
27896;DHT22;15241;48.374;10.876;2023-02-01T18:36:32;5.10;99.90
27896;DHT22;15241;48.374;10.876;2023-02-01T18:41:31;5.00;99.90
27896;DHT22;15241;48.374;10.876;2023-02-01T18:46:30;5.10;99.90
27896;DHT22;15241;48.374;10.876;2023-02-01T18:51:29;5.10;99.90
27896;DHT22;15241;48.374;10.876;2023-02-01T18:56:28;5.10;99.90
27896;DHT22;15241;48.374;10.876;2023-02-01T19:01:27;5.00;99.90
27896;DHT22;15241;48.374;10.876;2023-02-01T19:06:26;5.10;99.90
27896;DHT22;15241;48.374;10.876;2023-02-01T19:11:25;5.00;99.90
27896;DHT22;15241;48.374;10.876;2023-02-01T19:16:24;5.10;99.90
27896;DHT22;15241;48.374;10.876;2023-02-01T19:21:23;5.10;99.90
27896;DHT22;15241;48.374;10.876;2023-02-01T19:26:22;5.10;99.90
27896;DHT22;15241;48.374;10.876;2023-02-01T19:31:21;5.10;99.90
27896;DHT22;15241;48.374;10.876;2023-02-01T19:36:20;5.10;99.90
27896;DHT22;15241;48.374;10.876;2023-02-01T19:41:20;5.20;99.90
27896;DHT22;15241;48.374;10.876;2023-02-01T19:46:19;5.10;99.90
27896;DHT22;15241;48.374;10.876;2023-02-01T19:51:18;5.10;99.90
27896;DHT22;15241;48.374;10.876;2023-02-01T19:56:17;5.10;99.90
27896;DHT22;15241;48.374;10.876;2023-02-01T20:01:16;5.20;99.90
27896;DHT22;15241;48.374;10.876;2023-02-01T20:06:15;5.10;99.90
27896;DHT22;15241;48.374;10.876;2023-02-01T20:11:14;5.10;99.90
27896;DHT22;15241;48.374;10.876;2023-02-01T20:16:13;5.10;99.90
27896;DHT22;15241;48.374;10.876;2023-02-01T20:21:12;5.10;99.90
27896;DHT22;15241;48.374;10.876;2023-02-01T20:26:12;5.10;99.90
27896;DHT22;15241;48.374;10.876;2023-02-01T20:31:11;5.10;99.90
27896;DHT22;15241;48.374;10.876;2023-02-01T20:36:10;5.10;99.90
27896;DHT22;15241;48.374;10.876;2023-02-01T20:41:09;5.10;99.90
27896;DHT22;15241;48.374;10.876;2023-02-01T20:46:08;5.10;99.90
27896;DHT22;15241;48.374;10.876;2023-02-01T20:51:08;5.10;99.90
27896;DHT22;15241;48.374;10.876;2023-02-01T20:56:09;5.20;99.90
27896;DHT22;15241;48.374;10.876;2023-02-01T21:01:08;5.10;99.90
27896;DHT22;15241;48.374;10.876;2023-02-01T21:06:08;5.10;99.90
27896;DHT22;15241;48.374;10.876;2023-02-01T21:11:09;5.10;99.90
27896;DHT22;15241;48.374;10.876;2023-02-01T21:16:10;5.00;99.90
27896;DHT22;15241;48.374;10.876;2023-02-01T21:21:11;5.10;99.90
27896;DHT22;15241;48.374;10.876;2023-02-01T21:26:11;5.10;99.90
27896;DHT22;15241;48.374;10.876;2023-02-01T21:31:10;5.10;99.90
27896;DHT22;15241;48.374;10.876;2023-02-01T21:36:09;5.10;99.90
27896;DHT22;15241;48.374;10.876;2023-02-01T21:41:08;5.10;99.90
27896;DHT22;15241;48.374;10.876;2023-02-01T21:46:07;5.10;99.90
27896;DHT22;15241;48.374;10.876;2023-02-01T21:51:06;5.10;99.90
27896;DHT22;15241;48.374;10.876;2023-02-01T21:56:06;5.10;99.90
27896;DHT22;15241;48.374;10.876;2023-02-01T22:01:05;5.00;99.90
27896;DHT22;15241;48.374;10.876;2023-02-01T22:06:05;5.00;99.90
27896;DHT22;15241;48.374;10.876;2023-02-01T22:11:04;5.00;99.90
27896;DHT22;15241;48.374;10.876;2023-02-01T22:16:03;5.10;99.90
27896;DHT22;15241;48.374;10.876;2023-02-01T22:21:03;5.00;99.90
27896;DHT22;15241;48.374;10.876;2023-02-01T22:26:03;5.10;99.90
27896;DHT22;15241;48.374;10.876;2023-02-01T22:31:04;5.00;99.90
27896;DHT22;15241;48.374;10.876;2023-02-01T22:36:04;5.00;99.90
27896;DHT22;15241;48.374;10.876;2023-02-01T22:41:04;5.00;99.90
27896;DHT22;15241;48.374;10.876;2023-02-01T22:46:06;5.00;99.90
27896;DHT22;15241;48.374;10.876;2023-02-01T22:51:06;4.90;99.90
27896;DHT22;15241;48.374;10.876;2023-02-01T22:56:08;4.90;99.90
27896;DHT22;15241;48.374;10.876;2023-02-01T23:01:08;4.90;99.90
27896;DHT22;15241;48.374;10.876;2023-02-01T23:06:08;4.90;99.90
27896;DHT22;15241;48.374;10.876;2023-02-01T23:11:08;4.90;99.90
27896;DHT22;15241;48.374;10.876;2023-02-01T23:16:09;4.90;99.90
27896;DHT22;15241;48.374;10.876;2023-02-01T23:21:10;4.90;99.90
27896;DHT22;15241;48.374;10.876;2023-02-01T23:26:10;4.90;99.90
27896;DHT22;15241;48.374;10.876;2023-02-01T23:31:09;4.90;99.90
27896;DHT22;15241;48.374;10.876;2023-02-01T23:36:12;4.90;99.90
27896;DHT22;15241;48.374;10.876;2023-02-01T23:41:12;4.90;99.90
27896;DHT22;15241;48.374;10.876;2023-02-01T23:46:11;4.90;99.90
27896;DHT22;15241;48.374;10.876;2023-02-01T23:51:10;4.90;99.90
27896;DHT22;15241;48.374;10.876;2023-02-01T23:56:15;5.00;99.90
